Time;durP1;ratioP1;P1;durP2;ratioP2;P2;SDS_P1;SDS_P2;PMS_P1;PMS_P2;Temp;Humidity;BMP_temperature;BMP_pressure;BME280_temperature;BME280_humidity;BME280_pressure;Samples;Min_cycle;Max_cycle;Signal;HPM_P1;HPM_P2
2023/04/20 00:01:45;;;;;;;14.83;9.43;;;6.70;39.40;;;;;;5078566;28;20481;-70
2023/04/20 00:04:15;;;;;;;16.73;11.60;;;6.70;39.50;;;;;;5075833;28;20471;-70
2023/04/20 00:06:42;;;;;;;16.07;11.10;;;6.70;39.50;;;;;;5084570;28;20990;-70
2023/04/20 00:09:09;;;;;;;16.97;11.40;;;6.70;39.50;;;;;;5080482;28;21318;-70
2023/04/20 00:11:36;;;;;;;16.93;12.20;;;6.70;39.70;;;;;;5084647;28;20547;-70
2023/04/20 00:14:03;;;;;;;16.10;11.70;;;6.80;39.60;;;;;;5082916;28;20460;-70
2023/04/20 00:16:29;;;;;;;18.07;11.20;;;6.80;39.60;;;;;;5075011;28;20476;-69
2023/04/20 00:18:56;;;;;;;17.50;12.30;;;6.80;39.60;;;;;;5081045;28;20472;-70
2023/04/20 00:21:24;;;;;;;14.83;11.57;;;6.80;39.60;;;;;;5075893;28;20464;-70
2023/04/20 00:23:51;;;;;;;17.20;12.20;;;6.80;39.60;;;;;;5074509;28;20472;-70
2023/04/20 00:26:20;;;;;;;20.93;12.47;;;6.80;39.80;;;;;;5076686;28;20481;-69
2023/04/20 00:28:46;;;;;;;15.83;11.03;;;6.80;39.70;;;;;;5083245;28;20469;-70
2023/04/20 00:31:13;;;;;;;14.80;11.10;;;6.80;39.80;;;;;;5083490;28;20487;-69
2023/04/20 00:33:40;;;;;;;17.20;11.13;;;6.90;39.90;;;;;;5078654;28;21183;-69
2023/04/20 00:36:07;;;;;;;22.10;13.63;;;6.90;39.80;;;;;;5084249;28;20478;-70
2023/04/20 00:38:35;;;;;;;19.63;12.40;;;6.90;39.60;;;;;;5073970;28;20477;-69
2023/04/20 00:41:02;;;;;;;18.33;12.63;;;7.00;39.60;;;;;;5077308;28;20547;-69
2023/04/20 00:43:29;;;;;;;19.23;12.83;;;7.00;39.50;;;;;;5077848;28;20830;-70
2023/04/20 00:45:56;;;;;;;17.37;12.17;;;7.00;39.50;;;;;;5072127;28;20489;-70
2023/04/20 00:48:22;;;;;;;19.80;12.67;;;7.00;39.60;;;;;;5079699;28;20461;-70
2023/04/20 00:50:51;;;;;;;19.83;13.70;;;7.00;39.40;;;;;;5084829;28;20824;-69
2023/04/20 00:53:18;;;;;;;19.40;13.93;;;7.00;39.30;;;;;;5077962;28;20468;-69
2023/04/20 00:55:47;;;;;;;20.27;13.87;;;7.00;39.40;;;;;;5080597;28;20484;-69
2023/04/20 00:58:13;;;;;;;22.10;14.87;;;7.00;39.30;;;;;;5080295;28;20479;-69
2023/04/20 01:00:40;;;;;;;21.43;14.33;;;7.00;39.30;;;;;;5080181;28;20467;-69
2023/04/20 01:03:07;;;;;;;21.37;13.73;;;7.00;39.20;;;;;;5076020;28;20475;-69
2023/04/20 01:05:34;;;;;;;18.43;14.13;;;7.00;39.20;;;;;;5077418;28;20491;-69
2023/04/20 01:08:01;;;;;;;19.67;14.73;;;7.00;39.20;;;;;;5079309;28;20930;-69
2023/04/20 01:10:28;;;;;;;19.20;14.90;;;7.10;39.10;;;;;;5079805;28;20466;-69
2023/04/20 01:12:56;;;;;;;20.63;13.83;;;7.10;39.10;;;;;;5077371;28;20464;-69
2023/04/20 01:15:23;;;;;;;21.87;13.90;;;7.10;39.00;;;;;;5073746;28;20488;-69
2023/04/20 01:17:51;;;;;;;19.53;15.60;;;7.00;38.80;;;;;;5078912;28;20481;-69
2023/04/20 01:20:19;;;;;;;21.70;15.40;;;7.10;39.00;;;;;;5085042;28;21003;-69
2023/04/20 01:22:48;;;;;;;19.57;13.50;;;7.00;38.90;;;;;;5076704;28;20681;-69
2023/04/20 01:25:15;;;;;;;20.67;14.37;;;7.00;38.90;;;;;;5076382;28;20476;-69
2023/04/20 01:27:42;;;;;;;20.50;14.33;;;7.00;38.80;;;;;;5082158;28;20465;-69
2023/04/20 01:30:10;;;;;;;20.63;14.37;;;7.00;38.80;;;;;;5079050;28;20464;-69
2023/04/20 01:32:37;;;;;;;22.20;14.07;;;7.00;38.80;;;;;;5081956;28;21278;-69
2023/04/20 01:35:05;;;;;;;19.53;14.30;;;7.00;38.90;;;;;;5077895;28;20487;-69
2023/04/20 01:37:32;;;;;;;20.30;14.13;;;7.00;38.80;;;;;;5083490;28;20492;-69
2023/04/20 01:40:00;;;;;;;18.17;13.20;;;7.00;38.70;;;;;;5075550;28;21171;-69
2023/04/20 01:42:27;;;;;;;19.47;13.10;;;7.00;38.50;;;;;;5079015;28;20479;-70
2023/04/20 01:44:54;;;;;;;19.17;13.63;;;7.00;38.40;;;;;;5079422;28;21011;-70
2023/04/20 01:47:21;;;;;;;17.80;13.27;;;7.00;38.20;;;;;;5078885;28;20504;-71
2023/04/20 01:49:47;;;;;;;16.73;13.17;;;7.00;38.20;;;;;;5084213;28;20479;-69
2023/04/20 01:52:14;;;;;;;18.70;12.40;;;7.00;38.30;;;;;;5083112;28;20452;-70
2023/04/20 01:54:41;;;;;;;15.93;12.60;;;7.00;38.10;;;;;;5073827;28;20507;-69
2023/04/20 01:57:09;;;;;;;16.17;11.73;;;7.00;38.10;;;;;;5083529;28;20487;-69
2023/04/20 01:59:35;;;;;;;17.50;12.73;;;7.00;38.10;;;;;;5075846;28;20477;-68
2023/04/20 02:02:02;;;;;;;17.17;12.13;;;6.90;37.90;;;;;;5069345;28;20476;-69
2023/04/20 02:04:29;;;;;;;17.73;12.17;;;6.90;37.90;;;;;;5079603;28;20980;-69
2023/04/20 02:06:56;;;;;;;21.33;13.47;;;6.90;37.70;;;;;;5087500;28;20459;-70
2023/04/20 02:09:22;;;;;;;17.23;12.07;;;6.90;37.70;;;;;;5080311;28;20472;-69
2023/04/20 02:11:49;;;;;;;16.43;11.57;;;6.90;37.80;;;;;;5074768;28;20460;-70
2023/04/20 02:14:18;;;;;;;16.47;11.40;;;6.90;37.50;;;;;;5082517;28;20494;-68
2023/04/20 02:16:45;;;;;;;17.73;12.70;;;6.90;37.30;;;;;;5079628;28;20472;-69
2023/04/20 02:19:12;;;;;;;16.50;12.10;;;6.90;37.30;;;;;;5077842;28;20460;-69
2023/04/20 02:21:38;;;;;;;17.90;12.10;;;6.90;37.30;;;;;;5078017;28;20854;-69
2023/04/20 02:24:06;;;;;;;17.50;11.13;;;6.90;37.30;;;;;;5084271;28;20479;-70
2023/04/20 02:26:33;;;;;;;17.63;12.50;;;6.90;37.30;;;;;;5078553;28;20461;-69
2023/04/20 02:28:59;;;;;;;16.40;10.90;;;6.90;37.30;;;;;;5074938;28;20460;-70
2023/04/20 02:31:27;;;;;;;18.10;12.20;;;6.90;37.30;;;;;;5072695;28;20495;-69
2023/04/20 02:33:54;;;;;;;14.70;11.77;;;6.90;37.30;;;;;;5080865;28;20486;-70
2023/04/20 02:36:21;;;;;;;16.37;11.17;;;6.90;37.20;;;;;;5078179;28;20484;-69
2023/04/20 02:38:48;;;;;;;18.77;11.70;;;6.80;37.10;;;;;;5084937;28;20515;-69
2023/04/20 02:41:14;;;;;;;17.30;10.97;;;6.80;37.00;;;;;;5079505;28;20464;-70
2023/04/20 02:43:41;;;;;;;15.87;12.07;;;6.80;36.90;;;;;;5075047;28;20828;-69
2023/04/20 02:46:08;;;;;;;16.13;10.87;;;6.80;36.90;;;;;;5077938;28;20475;-70
2023/04/20 02:48:36;;;;;;;15.37;10.40;;;6.80;36.90;;;;;;5078210;28;21113;-68
2023/04/20 02:51:02;;;;;;;15.33;11.47;;;6.70;36.80;;;;;;5085302;28;20464;-70
2023/04/20 02:53:29;;;;;;;15.60;9.83;;;6.70;36.70;;;;;;5077724;28;20483;-70
2023/04/20 02:55:56;;;;;;;16.70;10.80;;;6.70;36.60;;;;;;5080768;28;20507;-70
2023/04/20 02:58:23;;;;;;;13.37;10.00;;;6.70;36.40;;;;;;5080483;28;20476;-69
2023/04/20 03:00:49;;;;;;;15.00;10.60;;;6.70;36.40;;;;;;5071722;28;20460;-69
2023/04/20 03:03:16;;;;;;;17.20;10.67;;;6.70;36.40;;;;;;5071338;28;20829;-70
2023/04/20 03:05:45;;;;;;;15.50;9.93;;;6.70;36.40;;;;;;5073560;28;20630;-70
2023/04/20 03:08:11;;;;;;;21.43;10.03;;;6.60;36.30;;;;;;5076893;28;20838;-69
2023/04/20 03:10:38;;;;;;;14.73;10.10;;;6.60;36.30;;;;;;5081722;28;20472;-69
2023/04/20 03:13:05;;;;;;;14.87;9.63;;;6.60;36.20;;;;;;5080482;28;21248;-69
2023/04/20 03:15:32;;;;;;;13.83;10.37;;;6.60;36.30;;;;;;5081731;28;20484;-70
2023/04/20 03:17:59;;;;;;;18.00;10.00;;;6.60;36.30;;;;;;5084980;28;20485;-70
2023/04/20 03:20:26;;;;;;;14.50;9.97;;;6.60;36.30;;;;;;5084659;28;20476;-70
2023/04/20 03:22:54;;;;;;;15.70;11.13;;;6.60;36.30;;;;;;5084295;28;20470;-70
2023/04/20 03:25:21;;;;;;;14.57;10.27;;;6.60;36.20;;;;;;5077040;28;20480;-70
2023/04/20 03:27:48;;;;;;;14.23;9.53;;;6.60;36.20;;;;;;5083639;28;20551;-69
2023/04/20 03:30:15;;;;;;;17.43;9.27;;;6.60;36.10;;;;;;5079641;28;20464;-70
2023/04/20 03:32:42;;;;;;;12.70;10.13;;;6.60;36.20;;;;;;5072693;28;20464;-69
2023/04/20 03:35:09;;;;;;;16.07;11.00;;;6.60;36.20;;;;;;5079841;28;20487;-70
2023/04/20 03:37:36;;;;;;;15.10;10.90;;;6.50;36.30;;;;;;5079702;28;20476;-66
2023/04/20 03:40:07;;;;;;;18.10;12.20;;;6.60;36.20;;;;;;5097628;22;20861;-67
2023/04/20 03:42:33;;;;;;;14.43;11.13;;;6.60;36.30;;;;;;5123448;27;20468;-68
2023/04/20 03:45:00;;;;;;;15.80;11.33;;;6.50;36.40;;;;;;5120282;27;20486;-68
2023/04/20 03:47:27;;;;;;;13.30;10.63;;;6.50;36.30;;;;;;5124817;27;20466;-68
2023/04/20 03:49:54;;;;;;;14.03;9.80;;;6.50;36.20;;;;;;5126847;27;20837;-68
2023/04/20 03:52:20;;;;;;;14.47;9.87;;;6.50;36.30;;;;;;5111170;27;20470;-68
2023/04/20 03:54:47;;;;;;;14.30;11.03;;;6.50;36.30;;;;;;5117148;27;20489;-68
2023/04/20 03:57:15;;;;;;;14.07;10.50;;;6.50;36.30;;;;;;5121520;27;20474;-67
2023/04/20 03:59:42;;;;;;;13.63;10.70;;;6.40;36.40;;;;;;5125381;27;20475;-68
2023/04/20 04:02:09;;;;;;;14.10;10.47;;;6.40;36.50;;;;;;5115848;27;20475;-67
2023/04/20 04:04:36;;;;;;;15.80;11.13;;;6.40;36.50;;;;;;5102743;27;21296;-68
2023/04/20 04:07:03;;;;;;;16.23;10.30;;;6.40;36.60;;;;;;5123864;27;20470;-68
2023/04/20 04:09:29;;;;;;;14.00;9.93;;;6.40;36.50;;;;;;5122815;27;20454;-69
2023/04/20 04:11:57;;;;;;;14.50;9.70;;;6.40;36.40;;;;;;5114194;27;20493;-69
2023/04/20 04:14:25;;;;;;;13.47;10.17;;;6.40;36.30;;;;;;5115952;27;20573;-69
2023/04/20 04:16:51;;;;;;;18.40;9.97;;;6.40;36.40;;;;;;5125559;27;20833;-69
2023/04/20 04:19:18;;;;;;;15.73;9.33;;;6.30;36.20;;;;;;5123010;27;20467;-69
2023/04/20 04:21:45;;;;;;;16.53;11.00;;;6.30;36.10;;;;;;5123051;27;20462;-68
2023/04/20 04:24:11;;;;;;;12.23;9.20;;;6.30;36.20;;;;;;5125667;27;20474;-68
2023/04/20 04:26:38;;;;;;;17.03;11.03;;;6.30;36.00;;;;;;5127230;27;20949;-69
2023/04/20 04:29:05;;;;;;;16.30;11.20;;;6.30;36.00;;;;;;5122304;27;20463;-69
2023/04/20 04:31:33;;;;;;;17.40;10.63;;;6.30;36.20;;;;;;5126157;27;20476;-68
2023/04/20 04:34:00;;;;;;;17.50;12.67;;;6.30;36.30;;;;;;5116898;27;20513;-68
2023/04/20 04:36:27;;;;;;;16.83;11.90;;;6.30;36.30;;;;;;5123377;27;20467;-69
2023/04/20 04:38:54;;;;;;;16.83;12.10;;;6.30;36.40;;;;;;5129225;27;20513;-69
2023/04/20 04:41:22;;;;;;;17.87;12.57;;;6.30;36.50;;;;;;5122675;27;21116;-70
2023/04/20 04:43:49;;;;;;;19.53;14.10;;;6.30;36.50;;;;;;5123198;27;20565;-69
2023/04/20 04:46:16;;;;;;;20.10;14.13;;;6.30;36.70;;;;;;5129678;27;20484;-69
2023/04/20 04:48:45;;;;;;;21.90;15.53;;;6.20;36.80;;;;;;5126392;27;20503;-69
2023/04/20 04:51:12;;;;;;;21.80;14.63;;;6.30;36.80;;;;;;5124051;27;21017;-69
2023/04/20 04:53:38;;;;;;;31.00;16.07;;;6.30;37.00;;;;;;5130499;27;20454;-69
2023/04/20 04:56:06;;;;;;;24.13;15.87;;;6.30;37.00;;;;;;5126126;27;20886;-69
2023/04/20 04:58:33;;;;;;;22.90;16.57;;;6.30;37.10;;;;;;5126615;27;20502;-69
2023/04/20 05:00:59;;;;;;;18.13;13.03;;;6.30;37.00;;;;;;5122203;27;20477;-69
2023/04/20 05:03:26;;;;;;;21.33;15.23;;;6.30;37.10;;;;;;5123678;27;20469;-69
2023/04/20 05:05:55;;;;;;;18.90;13.40;;;6.30;37.10;;;;;;5124847;27;20493;-69
2023/04/20 05:08:23;;;;;;;17.57;13.30;;;6.30;36.90;;;;;;5128915;27;20817;-69
2023/04/20 05:10:49;;;;;;;16.57;11.97;;;6.30;36.80;;;;;;5128455;27;20461;-68
2023/04/20 05:13:16;;;;;;;18.50;12.27;;;6.40;36.50;;;;;;5125656;27;20455;-69
2023/04/20 05:15:43;;;;;;;17.70;12.73;;;6.30;36.60;;;;;;5125337;27;20912;-69
2023/04/20 05:18:10;;;;;;;18.87;11.77;;;6.30;36.50;;;;;;5128567;27;20474;-69
2023/04/20 05:20:37;;;;;;;17.10;12.03;;;6.30;36.10;;;;;;5130622;27;20455;-69
2023/04/20 05:23:05;;;;;;;19.10;11.30;;;6.30;36.10;;;;;;5127126;27;20455;-69
2023/04/20 05:25:32;;;;;;;16.30;12.37;;;6.30;36.00;;;;;;5125138;27;20486;-69
2023/04/20 05:27:59;;;;;;;16.87;11.83;;;6.30;36.00;;;;;;5125622;27;20490;-69
2023/04/20 05:30:26;;;;;;;15.77;12.13;;;6.30;35.90;;;;;;5125588;27;20466;-69
2023/04/20 05:32:52;;;;;;;21.40;12.57;;;6.30;36.00;;;;;;5125951;27;20863;-69
2023/04/20 05:35:20;;;;;;;17.23;12.53;;;6.30;35.90;;;;;;5120891;27;20479;-69
2023/04/20 05:37:47;;;;;;;16.47;12.87;;;6.30;35.90;;;;;;5111654;27;20454;-69
2023/04/20 05:40:15;;;;;;;16.87;11.67;;;6.20;36.10;;;;;;5118755;27;20525;-69
2023/04/20 05:42:42;;;;;;;18.37;11.77;;;6.20;36.10;;;;;;5123625;27;20489;-69
2023/04/20 05:45:10;;;;;;;15.57;13.13;;;6.20;36.20;;;;;;5112319;27;20505;-69
2023/04/20 05:47:36;;;;;;;62.40;35.43;;;6.20;36.20;;;;;;5114535;22;20469;-69
2023/04/20 05:50:03;;;;;;;61.13;41.90;;;6.20;36.20;;;;;;5051956;28;20469;-69
2023/04/20 05:52:30;;;;;;;32.33;23.30;;;6.20;36.20;;;;;;5058366;28;20828;-69
2023/04/20 05:54:58;;;;;;;20.33;14.90;;;6.20;36.30;;;;;;5058314;28;20464;-69
2023/04/20 05:57:26;;;;;;;19.20;13.50;;;6.20;36.50;;;;;;5057670;28;20468;-70
2023/04/20 05:59:54;;;;;;;16.90;12.43;;;6.20;36.50;;;;;;5054529;28;20480;-69
2023/04/20 06:02:21;;;;;;;15.03;11.60;;;6.20;36.50;;;;;;5065210;28;20477;-69
2023/04/20 06:04:48;;;;;;;15.40;11.80;;;6.20;36.50;;;;;;5063874;28;20465;-69
2023/04/20 06:07:14;;;;;;;16.80;11.53;;;6.30;36.30;;;;;;5062815;28;20480;-69
2023/04/20 06:09:41;;;;;;;18.00;11.60;;;6.30;36.20;;;;;;5061890;28;20483;-69
2023/04/20 06:12:08;;;;;;;18.23;11.70;;;6.30;36.10;;;;;;5067032;28;20716;-69
2023/04/20 06:14:37;;;;;;;15.10;11.43;;;6.30;36.00;;;;;;5067154;28;20528;-69
2023/04/20 06:17:04;;;;;;;17.40;11.77;;;6.30;36.00;;;;;;5063906;28;20461;-69
2023/04/20 06:19:30;;;;;;;15.30;11.60;;;6.30;35.90;;;;;;5057879;28;21037;-69
2023/04/20 06:21:58;;;;;;;15.67;11.80;;;6.30;36.00;;;;;;5059144;28;20469;-69
2023/04/20 06:24:26;;;;;;;14.97;11.13;;;6.30;36.00;;;;;;5060666;28;20556;-69
2023/04/20 06:26:53;;;;;;;16.27;11.77;;;6.30;36.00;;;;;;5060793;28;20493;-69
2023/04/20 06:29:20;;;;;;;15.40;11.33;;;6.30;36.10;;;;;;5058679;28;21205;-69
2023/04/20 06:31:48;;;;;;;18.13;10.50;;;6.40;36.00;;;;;;5059797;28;20492;-69
2023/04/20 06:34:15;;;;;;;19.60;13.90;;;6.30;35.90;;;;;;5047384;28;20468;-69
2023/04/20 06:36:42;;;;;;;19.03;12.43;;;6.30;35.90;;;;;;5060330;28;20471;-69
2023/04/20 06:39:10;;;;;;;18.80;12.37;;;6.30;36.00;;;;;;5061728;28;20485;-69
2023/04/20 06:41:37;;;;;;;18.93;13.00;;;6.30;36.10;;;;;;5054514;28;20467;-69
2023/04/20 06:44:04;;;;;;;21.63;12.53;;;6.40;36.00;;;;;;5058045;28;20466;-69
2023/04/20 06:46:30;;;;;;;22.00;13.27;;;6.40;36.10;;;;;;5058550;28;20973;-69
2023/04/20 06:48:59;;;;;;;23.50;13.80;;;6.40;36.10;;;;;;5064688;28;20492;-69
2023/04/20 06:51:27;;;;;;;21.77;13.97;;;6.40;36.20;;;;;;5067903;28;20469;-69
2023/04/20 06:53:54;;;;;;;24.23;14.70;;;6.40;36.30;;;;;;5064510;28;21116;-69
2023/04/20 06:56:20;;;;;;;26.37;15.37;;;6.50;36.30;;;;;;5069406;28;20461;-69
2023/04/20 06:58:47;;;;;;;25.27;15.80;;;6.50;36.70;;;;;;5066995;28;20488;-69
2023/04/20 07:01:14;;;;;;;41.67;15.43;;;6.60;36.30;;;;;;5060475;28;20867;-69
2023/04/20 07:03:41;;;;;;;28.30;15.27;;;6.60;36.40;;;;;;5061156;28;20469;-69
2023/04/20 07:06:10;;;;;;;23.17;15.60;;;6.70;36.50;;;;;;5062807;28;20902;-69
2023/04/20 07:08:38;;;;;;;20.50;15.47;;;6.70;36.30;;;;;;5063461;28;20556;-69
2023/04/20 07:11:05;;;;;;;20.73;13.87;;;6.70;36.20;;;;;;5058701;28;20465;-69
2023/04/20 07:13:32;;;;;;;22.03;15.57;;;6.80;36.10;;;;;;5066644;28;20992;-69
2023/04/20 07:15:59;;;;;;;21.70;16.10;;;6.80;36.20;;;;;;5063947;28;20944;-69
2023/04/20 07:18:25;;;;;;;23.70;15.90;;;6.90;36.20;;;;;;5064463;28;20481;-69
2023/04/20 07:20:52;;;;;;;21.93;16.00;;;6.90;36.00;;;;;;5063538;28;20468;-69
2023/04/20 07:23:21;;;;;;;22.93;15.80;;;7.00;36.30;;;;;;5069768;28;20464;-68
2023/04/20 07:25:47;;;;;;;27.10;15.93;;;7.00;36.40;;;;;;5067572;28;20574;-69
2023/04/20 07:28:14;;;;;;;25.50;16.70;;;7.00;36.40;;;;;;5068801;28;20480;-69
2023/04/20 07:30:41;;;;;;;36.57;20.20;;;7.10;36.40;;;;;;5063137;28;20465;-68
2023/04/20 07:33:09;;;;;;;25.87;17.00;;;7.10;36.40;;;;;;5066426;28;21165;-69
2023/04/20 07:35:36;;;;;;;24.57;16.73;;;7.10;36.50;;;;;;5063583;28;20988;-68
2023/04/20 07:38:03;;;;;;;24.03;17.33;;;7.20;36.40;;;;;;5063608;28;20484;-68
2023/04/20 07:40:31;;;;;;;21.93;15.43;;;7.20;36.20;;;;;;5066984;28;20468;-69
2023/04/20 07:42:58;;;;;;;20.40;14.90;;;7.20;36.10;;;;;;5065823;28;20454;-68
2023/04/20 07:45:25;;;;;;;35.07;17.93;;;7.30;36.10;;;;;;5066134;28;20457;-68
2023/04/20 07:47:53;;;;;;;20.20;16.07;;;7.30;36.10;;;;;;5068137;28;20481;-68
2023/04/20 07:50:20;;;;;;;20.40;17.07;;;7.30;36.20;;;;;;5062280;28;20456;-69
2023/04/20 07:52:47;;;;;;;18.77;15.33;;;7.30;36.10;;;;;;5060204;28;20845;-69
2023/04/20 07:55:14;;;;;;;20.00;15.63;;;7.30;36.30;;;;;;5064726;28;20956;-69
2023/04/20 07:57:42;;;;;;;19.70;15.33;;;7.20;36.20;;;;;;5058978;28;20484;-69
2023/04/20 08:00:11;;;;;;;20.60;14.63;;;7.20;36.40;;;;;;5060288;28;21250;-69
2023/04/20 08:02:38;;;;;;;23.93;16.67;;;7.20;36.20;;;;;;5055408;28;20478;-69
2023/04/20 08:05:05;;;;;;;17.97;15.00;;;7.10;36.40;;;;;;5064094;28;20465;-69
2023/04/20 08:07:32;;;;;;;21.47;16.87;;;7.10;36.50;;;;;;5067408;28;20540;-69
2023/04/20 08:10:00;;;;;;;20.03;15.23;;;7.10;36.70;;;;;;5067659;28;20541;-69
2023/04/20 08:12:26;;;;;;;23.23;15.07;;;7.10;36.90;;;;;;5066872;28;20457;-69
2023/04/20 08:14:58;;;;;;;23.27;16.43;;;7.00;36.70;;;;;;5065679;28;20866;-69
2023/04/20 08:17:25;;;;;;;21.27;16.83;;;7.00;37.00;;;;;;5065857;28;20496;-69
2023/04/20 08:19:52;;;;;;;20.40;15.50;;;7.00;37.20;;;;;;5067762;28;20481;-69
2023/04/20 08:22:20;;;;;;;21.57;15.67;;;7.00;37.30;;;;;;5065575;28;20461;-69
2023/04/20 08:24:47;;;;;;;18.13;15.10;;;7.10;37.30;;;;;;5065844;28;21057;-69
2023/04/20 08:27:13;;;;;;;18.73;15.93;;;7.10;37.30;;;;;;5066743;28;20538;-69
2023/04/20 08:29:40;;;;;;;19.07;15.60;;;7.10;37.20;;;;;;5066000;28;20477;-69
2023/04/20 08:32:10;;;;;;;21.90;16.70;;;7.10;37.30;;;;;;5060454;28;20477;-69
2023/04/20 08:34:36;;;;;;;18.43;14.83;;;7.10;37.40;;;;;;5052329;28;20524;-69
2023/04/20 08:37:03;;;;;;;22.43;15.77;;;7.20;37.30;;;;;;5060380;28;20468;-69
2023/04/20 08:39:30;;;;;;;17.90;14.60;;;7.20;37.30;;;;;;5068654;28;20484;-69
2023/04/20 08:41:57;;;;;;;24.87;16.00;;;7.20;37.50;;;;;;5062941;28;20659;-68
2023/04/20 08:44:24;;;;;;;16.77;14.23;;;7.20;37.30;;;;;;5057829;28;20462;-68
2023/04/20 08:46:51;;;;;;;20.03;15.00;;;7.30;37.40;;;;;;5064533;28;20972;-69
2023/04/20 08:49:20;;;;;;;19.10;14.93;;;7.30;37.40;;;;;;5060864;28;20476;-69
2023/04/20 08:51:48;;;;;;;16.30;13.70;;;7.40;37.20;;;;;;5065013;28;20471;-69
2023/04/20 08:54:15;;;;;;;17.90;13.73;;;7.40;37.30;;;;;;5061365;28;20867;-68
2023/04/20 08:56:43;;;;;;;17.80;13.53;;;7.50;37.10;;;;;;5067585;28;20475;-68
2023/04/20 08:59:12;;;;;;;18.13;13.93;;;7.50;36.90;;;;;;5064291;28;20907;-69
2023/04/20 09:01:40;;;;;;;17.70;13.97;;;7.60;36.70;;;;;;5063486;28;20479;-69
2023/04/20 09:04:16;;;;;;;17.27;13.30;;;7.60;36.70;;;;;;5061720;28;20508;-69
2023/04/20 09:06:46;;;;;;;16.60;12.80;;;7.60;36.60;;;;;;5068332;28;20460;-69
2023/04/20 09:09:13;;;;;;;16.80;12.20;;;7.60;36.60;;;;;;5057262;28;20481;-69
2023/04/20 09:11:40;;;;;;;15.00;11.97;;;7.70;36.60;;;;;;5062910;28;20461;-69
2023/04/20 09:14:11;;;;;;;15.50;12.47;;;7.70;36.80;;;;;;5065358;28;20492;-69
2023/04/20 09:16:38;;;;;;;16.20;12.67;;;7.70;36.90;;;;;;5053215;28;20469;-69
2023/04/20 09:19:05;;;;;;;17.37;11.97;;;7.80;36.70;;;;;;5063517;28;20499;-69
2023/04/20 09:21:32;;;;;;;19.83;13.30;;;7.80;36.70;;;;;;5063568;28;20497;-69
2023/04/20 09:24:01;;;;;;;18.67;13.67;;;7.80;36.80;;;;;;5066788;28;20954;-69
2023/04/20 09:26:32;;;;;;;15.97;12.77;;;7.80;36.80;;;;;;5065242;28;20468;-69
2023/04/20 09:28:59;;;;;;;20.40;13.00;;;7.90;36.70;;;;;;5059659;28;20516;-69
2023/04/20 09:31:26;;;;;;;14.93;10.70;;;7.90;36.60;;;;;;5064742;28;20797;-69
2023/04/20 09:33:57;;;;;;;15.07;11.40;;;8.00;36.50;;;;;;5057622;28;20461;-69
2023/04/20 09:36:24;;;;;;;12.70;10.40;;;8.00;36.40;;;;;;5067666;28;20457;-69
2023/04/20 09:39:03;;;;;;;12.17;9.70;;;8.10;36.50;;;;;;5060747;28;20509;-69
2023/04/20 09:41:31;;;;;;;12.40;9.30;;;8.00;36.30;;;;;;5068150;28;20860;-69
2023/04/20 09:43:59;;;;;;;11.40;8.33;;;8.00;36.30;;;;;;5065575;28;20461;-69
2023/04/20 09:46:30;;;;;;;10.50;7.97;;;8.00;36.40;;;;;;5063275;28;20468;-69
2023/04/20 09:48:57;;;;;;;9.03;6.30;;;8.00;36.60;;;;;;5062239;28;20542;-69
2023/04/20 09:51:26;;;;;;;9.03;5.90;;;7.90;36.20;;;;;;5064299;28;20476;-69
2023/04/20 09:53:54;;;;;;;9.00;6.13;;;7.80;36.20;;;;;;5064720;28;20461;-69
2023/04/20 09:56:22;;;;;;;8.30;5.30;;;7.80;36.60;;;;;;5056289;28;20468;-69
2023/04/20 09:58:51;;;;;;;7.67;4.93;;;7.70;36.60;;;;;;5061851;28;20485;-69
2023/04/20 10:01:18;;;;;;;7.80;5.57;;;7.80;36.60;;;;;;5056071;28;20504;-69
2023/04/20 10:03:45;;;;;;;9.40;6.23;;;7.70;36.90;;;;;;5060718;28;20465;-69
2023/04/20 10:06:22;;;;;;;7.60;5.07;;;7.60;37.00;;;;;;5062250;28;20806;-69
2023/04/20 10:08:50;;;;;;;7.43;5.10;;;7.50;37.20;;;;;;5062166;28;20522;-69
2023/04/20 10:11:32;;;;;;;10.27;5.50;;;7.40;37.10;;;;;;5066547;28;20869;-69
2023/04/20 10:14:01;;;;;;;7.50;4.30;;;7.40;37.20;;;;;;5058492;28;20476;-69
2023/04/20 10:16:28;;;;;;;6.87;4.10;;;7.40;36.90;;;;;;5066915;28;20506;-69
2023/04/20 10:19:00;;;;;;;7.77;4.70;;;7.40;37.10;;;;;;5059327;28;20493;-69
2023/04/20 10:21:28;;;;;;;8.00;4.73;;;7.40;37.60;;;;;;5061746;28;20481;-69
2023/04/20 10:23:55;;;;;;;10.87;4.70;;;7.40;37.40;;;;;;5059176;28;20465;-69
2023/04/20 10:26:22;;;;;;;7.60;4.37;;;7.40;37.60;;;;;;5060358;28;20465;-69
2023/04/20 10:28:50;;;;;;;6.80;4.37;;;7.40;37.70;;;;;;5051706;28;20976;-68
2023/04/20 10:31:19;;;;;;;7.17;4.50;;;7.40;37.90;;;;;;5062160;28;20556;-68
2023/04/20 10:33:51;;;;;;;6.47;4.03;;;7.40;37.90;;;;;;5057099;28;20480;-69
2023/04/20 10:36:27;;;;;;;7.57;4.90;;;7.40;37.50;;;;;;5063643;28;20457;-69
2023/04/20 10:38:54;;;;;;;7.17;4.03;;;7.40;37.30;;;;;;5055670;28;20572;-69
2023/04/20 10:41:21;;;;;;;6.20;3.80;;;7.30;37.40;;;;;;5061232;28;20925;-69
2023/04/20 10:43:49;;;;;;;6.67;4.13;;;7.20;37.90;;;;;;5063184;28;21000;-69
2023/04/20 10:46:17;;;;;;;7.40;4.13;;;7.30;38.40;;;;;;5060835;28;20466;-69
2023/04/20 10:48:54;;;;;;;7.23;4.40;;;7.30;38.00;;;;;;5057073;28;20488;-69
2023/04/20 10:51:21;;;;;;;6.70;3.37;;;7.40;38.10;;;;;;5055041;28;20465;-69
2023/04/20 10:54:03;;;;;;;5.87;3.23;;;7.30;38.40;;;;;;5057422;28;20471;-69
2023/04/20 10:56:37;;;;;;;6.43;3.90;;;7.20;37.70;;;;;;5061642;28;20464;-69
2023/04/20 10:59:08;;;;;;;6.07;3.20;;;7.20;38.30;;;;;;5057377;28;20502;-69
2023/04/20 11:01:35;;;;;;;7.27;3.50;;;7.30;38.50;;;;;;5056168;28;20558;-69
2023/04/20 11:04:03;;;;;;;5.93;3.30;;;7.30;38.20;;;;;;5053970;28;20504;-69
2023/04/20 11:06:30;;;;;;;6.77;3.87;;;7.30;37.80;;;;;;5062121;28;21268;-69
2023/04/20 11:08:57;;;;;;;6.90;3.67;;;7.30;37.40;;;;;;5064475;28;20518;-68
2023/04/20 11:11:26;;;;;;;5.57;2.73;;;7.30;37.40;;;;;;5064850;28;20879;-68
2023/04/20 11:14:04;;;;;;;5.83;3.07;;;7.20;37.50;;;;;;5049146;28;20478;-68
2023/04/20 11:16:32;;;;;;;5.63;3.17;;;7.20;37.20;;;;;;5063388;28;20472;-68
2023/04/20 11:18:59;;;;;;;6.23;3.30;;;7.20;38.10;;;;;;5063014;28;20992;-69
2023/04/20 11:21:36;;;;;;;6.47;3.03;;;7.20;38.00;;;;;;5062673;28;20488;-69
2023/04/20 11:24:03;;;;;;;5.73;3.20;;;7.30;38.10;;;;;;5063169;28;20456;-69
2023/04/20 11:26:35;;;;;;;6.70;3.40;;;7.30;37.60;;;;;;5063547;28;20496;-69
2023/04/20 11:29:02;;;;;;;5.90;3.20;;;7.20;38.00;;;;;;5061270;28;20492;-69
2023/04/20 11:31:29;;;;;;;7.10;3.53;;;7.20;37.90;;;;;;5059189;28;20942;-69
2023/04/20 11:33:57;;;;;;;6.30;3.40;;;7.20;38.20;;;;;;5066083;28;20453;-69
2023/04/20 11:36:27;;;;;;;8.67;3.47;;;7.20;38.50;;;;;;5070114;28;20473;-68
2023/04/20 11:38:54;;;;;;;5.47;2.77;;;7.20;38.00;;;;;;5052122;28;20492;-68
2023/04/20 11:41:22;;;;;;;6.00;3.70;;;7.10;37.80;;;;;;5059759;28;22689;-69
2023/04/20 11:43:48;;;;;;;5.67;3.53;;;7.20;38.10;;;;;;5060314;28;20469;-69
2023/04/20 11:46:16;;;;;;;5.67;3.00;;;7.20;38.00;;;;;;5063064;28;20520;-68
2023/04/20 11:48:43;;;;;;;6.73;3.40;;;7.40;37.80;;;;;;5063501;28;20982;-69
2023/04/20 11:51:11;;;;;;;8.70;4.33;;;7.30;36.90;;;;;;5063384;28;20468;-69
2023/04/20 11:53:38;;;;;;;6.73;4.10;;;7.40;36.00;;;;;;5065684;28;20465;-69
2023/04/20 11:56:05;;;;;;;6.30;3.33;;;7.40;36.40;;;;;;5066577;28;20461;-69
2023/04/20 11:58:32;;;;;;;6.73;4.00;;;7.40;36.30;;;;;;5058812;28;20489;-69
2023/04/20 12:00:58;;;;;;;7.07;3.87;;;7.40;36.70;;;;;;5068107;28;20496;-69
2023/04/20 12:03:25;;;;;;;7.80;4.70;;;7.40;36.30;;;;;;5062921;28;20461;-69
2023/04/20 12:05:52;;;;;;;7.27;4.80;;;7.40;36.60;;;;;;5060007;28;20481;-69
2023/04/20 12:08:20;;;;;;;8.17;5.27;;;7.40;36.80;;;;;;5066141;28;20473;-69
2023/04/20 12:10:47;;;;;;;7.57;4.70;;;7.40;36.90;;;;;;5065040;28;20484;-69
2023/04/20 12:13:13;;;;;;;7.57;4.77;;;7.50;36.60;;;;;;5055928;28;20465;-69
2023/04/20 12:15:40;;;;;;;8.20;5.17;;;7.50;36.70;;;;;;5058127;28;20949;-69
2023/04/20 12:18:07;;;;;;;6.63;4.43;;;7.40;36.50;;;;;;5062336;28;20482;-69
2023/04/20 12:20:34;;;;;;;7.00;4.43;;;7.40;36.30;;;;;;5062287;28;20488;-69
2023/04/20 12:23:01;;;;;;;7.30;5.27;;;7.40;36.30;;;;;;5064453;28;20464;-69
2023/04/20 12:25:29;;;;;;;9.20;4.80;;;7.30;36.70;;;;;;5057908;28;20473;-69
2023/04/20 12:27:56;;;;;;;7.03;4.57;;;7.40;36.90;;;;;;5064514;28;20484;-69
2023/04/20 12:30:23;;;;;;;7.70;5.20;;;7.40;36.90;;;;;;5063751;28;20963;-69
2023/04/20 12:32:49;;;;;;;8.10;4.90;;;7.40;36.70;;;;;;5063806;28;20488;-69
2023/04/20 12:35:16;;;;;;;10.00;6.50;;;7.30;37.00;;;;;;5060785;28;20465;-69
2023/04/20 12:37:43;;;;;;;7.87;5.20;;;7.30;36.80;;;;;;5067430;28;20493;-69
2023/04/20 12:40:10;;;;;;;8.97;5.20;;;7.20;37.70;;;;;;5068373;28;20457;-69
2023/04/20 12:42:39;;;;;;;8.20;5.40;;;7.30;37.40;;;;;;5058003;28;20476;-69
2023/04/20 12:45:06;;;;;;;9.50;6.00;;;7.30;37.60;;;;;;5063719;28;20558;-69